LTBULTFJ

Guest
Details From LTBU - CORLU
To LTFJ - SABIHA GOKCEN
Flight Number -
Tags generated
Created
Modified
Stats Distance 65 nm / 120 km
Max Altitude 4,900 ft / 1,494 m
Waypoints 3
Social Downloads 3
Likes 0
Share VATSIM

Download

Looking for another format? Having issues loading an existing format? Contact us
Advertisement - Login to hide

Notes

Basic altitude profile: - Ascent Rate: 2500ft/min - Ascent Speed: 220kts - Cruise Altitude: 12000ft - Cruise Speed: 250kts - Descent Rate: 1500ft/min - Descent Speed: 220kts Options: - Use NATs: yes - Use PACOTS: yes - Use low airways: yes - Use high airways: yes

Route

LTBU IST LTFJ

ID Type Via Altitude Latitude Longitude Leg Dist Tot Dist Heading (true) Name
O LTBU APT - 0 ft / 0 m 41.13825˚ 27.91894˚ - 0 nm - CORLU
IST VOR - 4,900 ft / 1,494 m 40.96250˚ 28.80972˚ 41 nm 41 nm 104° / 105° ISTANBUL VORTAC
O LTFJ APT - 0 ft / 0 m 40.89855˚ 29.30922˚ 22 nm 64 nm 99° / 100° SABIHA GOKCEN

Altitude Profile

Advertisement - Login to hide

LTBU

Details ICAO LTBU (TEQ)
Name CORLU
Region Turkey
Timezone Europe/Istanbul (UTC+3.0)
Stats Elevation 574 ft / 175 m (AMSL)
Location 41.138250° 27.918944°
Runways 1
Magnetic Variation 5.345° E

METAR

LTBU 141450Z 00000KT 9999 FEW035 12/09 Q1012

Decode

TAF

Not found

Departure Runways

ID Width Length Bearing (true) Bearing (mag) Surface Threshold Offset Overrun Length
05 148 ft / 45 m 9,899 ft / 3,017 m 49.36° 44.01° Concrete 0 ft / 0 m 458 ft / 140 m
23 148 ft / 45 m 9,899 ft / 3,017 m 229.37° 224.02° Concrete 0 ft / 0 m 495 ft / 151 m

LTFJ

Details ICAO LTFJ (SAW)
Name SABIHA GOKCEN
Region Turkey
Timezone Europe/Istanbul (UTC+3.0)
Stats Elevation 312 ft / 95 m (AMSL)
Location 40.898552° 29.309221°
Runways 1
Magnetic Variation 5.474° E

METAR

LTFJ 141450Z 24008KT CAVOK 15/09 Q1013 NOSIG

Decode

TAF

Not found

Destination Runways

ID Width Length Bearing (true) Bearing (mag) Surface Threshold Offset Overrun Length
06 148 ft / 45 m 9,690 ft / 2,953 m 64.01° 58.54° Concrete 0 ft / 0 m 197 ft / 60 m
24 148 ft / 45 m 9,690 ft / 2,953 m 244.03° 238.56° Concrete 0 ft / 0 m 197 ft / 60 m

Approach Navaids

Runway Type Ident Frequency Range Bearing (true) Bearing (mag) Slope Elevation
06 Localiser ISAB 109.90 MHz 18 nm / 33 km 64.03° 58.56° - 293 ft / 89 m (AMSL)
06 Glidescope ISAB 109.90 MHz 10 nm / 19 km 64.02° 58.55° 3.50° 294 ft / 90 m (AMSL)
06 DME ISAB 109.90 MHz 18 nm / 33 km - - - 312 ft / 95 m (AMSL)
24 Localiser ISBH 110.90 MHz 18 nm / 33 km 244.01° 238.54° - 285 ft / 87 m (AMSL)
24 Glidescope ISBH 110.90 MHz 10 nm / 19 km 244.02° 238.55° 3.50° 299 ft / 91 m (AMSL)
24 DME ISBH 110.90 MHz 18 nm / 33 km - - - 318 ft / 97 m (AMSL)